sensor_id;sensor_type;location;lat;lon;timestamp;temperature;humidity
56172;DHT22;42052;41.634;-0.946;2023-05-29T00:01:09;25.10;49.10
56172;DHT22;42052;41.634;-0.946;2023-05-29T00:03:56;25.10;49.10
56172;DHT22;42052;41.634;-0.946;2023-05-29T00:06:42;25.20;49.20
56172;DHT22;42052;41.634;-0.946;2023-05-29T00:09:28;25.20;49.10
56172;DHT22;42052;41.634;-0.946;2023-05-29T00:12:15;25.20;49.30
56172;DHT22;42052;41.634;-0.946;2023-05-29T00:15:02;25.20;49.30
56172;DHT22;42052;41.634;-0.946;2023-05-29T00:17:51;25.20;49.20
56172;DHT22;42052;41.634;-0.946;2023-05-29T00:20:37;25.20;49.20
56172;DHT22;42052;41.634;-0.946;2023-05-29T00:23:23;25.10;49.10
56172;DHT22;42052;41.634;-0.946;2023-05-29T00:26:10;25.20;49.30
56172;DHT22;42052;41.634;-0.946;2023-05-29T00:28:56;25.20;49.20
56172;DHT22;42052;41.634;-0.946;2023-05-29T00:31:42;25.20;49.20
56172;DHT22;42052;41.634;-0.946;2023-05-29T00:34:28;25.10;49.00
56172;DHT22;42052;41.634;-0.946;2023-05-29T00:37:14;25.20;49.20
56172;DHT22;42052;41.634;-0.946;2023-05-29T00:40:00;25.20;49.10
56172;DHT22;42052;41.634;-0.946;2023-05-29T00:42:46;25.20;49.10
56172;DHT22;42052;41.634;-0.946;2023-05-29T00:45:32;25.20;49.10
56172;DHT22;42052;41.634;-0.946;2023-05-29T00:48:23;25.20;49.10
56172;DHT22;42052;41.634;-0.946;2023-05-29T00:51:10;25.20;49.10
56172;DHT22;42052;41.634;-0.946;2023-05-29T00:53:58;25.20;49.10
56172;DHT22;42052;41.634;-0.946;2023-05-29T00:56:45;25.20;49.00
56172;DHT22;42052;41.634;-0.946;2023-05-29T00:59:32;25.20;48.90
56172;DHT22;42052;41.634;-0.946;2023-05-29T01:02:20;25.20;48.90
56172;DHT22;42052;41.634;-0.946;2023-05-29T01:05:07;25.20;49.00
56172;DHT22;42052;41.634;-0.946;2023-05-29T01:07:55;25.20;48.90
56172;DHT22;42052;41.634;-0.946;2023-05-29T01:10:42;25.20;48.70
56172;DHT22;42052;41.634;-0.946;2023-05-29T01:13:30;25.20;48.80
56172;DHT22;42052;41.634;-0.946;2023-05-29T01:16:46;25.20;48.80
56172;DHT22;42052;41.634;-0.946;2023-05-29T01:23:17;25.30;48.70
56172;DHT22;42052;41.634;-0.946;2023-05-29T01:29:00;25.30;48.60
56172;DHT22;42052;41.634;-0.946;2023-05-29T01:31:50;25.30;48.70
56172;DHT22;42052;41.634;-0.946;2023-05-29T01:34:36;25.30;48.70
56172;DHT22;42052;41.634;-0.946;2023-05-29T01:37:22;25.30;48.70
56172;DHT22;42052;41.634;-0.946;2023-05-29T01:40:08;25.30;48.70
56172;DHT22;42052;41.634;-0.946;2023-05-29T01:42:55;25.30;48.60
56172;DHT22;42052;41.634;-0.946;2023-05-29T01:45:41;25.30;48.60
56172;DHT22;42052;41.634;-0.946;2023-05-29T01:48:28;25.30;48.80
56172;DHT22;42052;41.634;-0.946;2023-05-29T01:51:14;25.30;48.70
56172;DHT22;42052;41.634;-0.946;2023-05-29T01:54:01;25.30;48.70
56172;DHT22;42052;41.634;-0.946;2023-05-29T01:56:48;25.30;48.80
56172;DHT22;42052;41.634;-0.946;2023-05-29T01:59:36;25.30;48.70
56172;DHT22;42052;41.634;-0.946;2023-05-29T02:02:23;25.20;48.80
56172;DHT22;42052;41.634;-0.946;2023-05-29T02:05:09;25.30;48.80
56172;DHT22;42052;41.634;-0.946;2023-05-29T02:07:56;25.30;48.80
56172;DHT22;42052;41.634;-0.946;2023-05-29T02:10:42;25.30;48.80
56172;DHT22;42052;41.634;-0.946;2023-05-29T02:13:28;25.30;48.80
56172;DHT22;42052;41.634;-0.946;2023-05-29T02:16:14;25.20;48.70
56172;DHT22;42052;41.634;-0.946;2023-05-29T02:19:01;25.20;48.80
56172;DHT22;42052;41.634;-0.946;2023-05-29T02:21:47;25.20;48.90
56172;DHT22;42052;41.634;-0.946;2023-05-29T02:24:34;25.20;48.90
56172;DHT22;42052;41.634;-0.946;2023-05-29T02:27:20;25.20;48.90
56172;DHT22;42052;41.634;-0.946;2023-05-29T02:30:07;25.20;48.90
56172;DHT22;42052;41.634;-0.946;2023-05-29T02:32:54;25.20;48.90
56172;DHT22;42052;41.634;-0.946;2023-05-29T02:35:40;25.20;48.90
56172;DHT22;42052;41.634;-0.946;2023-05-29T02:38:26;25.20;49.20
56172;DHT22;42052;41.634;-0.946;2023-05-29T02:41:12;25.20;49.00
56172;DHT22;42052;41.634;-0.946;2023-05-29T02:43:58;25.20;48.90
56172;DHT22;42052;41.634;-0.946;2023-05-29T02:46:45;25.20;48.90
56172;DHT22;42052;41.634;-0.946;2023-05-29T02:49:31;25.20;48.90
56172;DHT22;42052;41.634;-0.946;2023-05-29T02:52:17;25.20;48.90
56172;DHT22;42052;41.634;-0.946;2023-05-29T02:55:04;25.20;48.90
56172;DHT22;42052;41.634;-0.946;2023-05-29T02:57:51;25.20;49.10
56172;DHT22;42052;41.634;-0.946;2023-05-29T03:00:40;25.20;49.00
56172;DHT22;42052;41.634;-0.946;2023-05-29T03:03:26;25.20;49.00
56172;DHT22;42052;41.634;-0.946;2023-05-29T03:06:12;25.20;49.10
56172;DHT22;42052;41.634;-0.946;2023-05-29T03:08:58;25.10;48.90
56172;DHT22;42052;41.634;-0.946;2023-05-29T03:11:45;25.10;49.00
56172;DHT22;42052;41.634;-0.946;2023-05-29T03:14:33;25.20;49.10
56172;DHT22;42052;41.634;-0.946;2023-05-29T03:17:21;25.20;49.10
56172;DHT22;42052;41.634;-0.946;2023-05-29T03:20:08;25.20;49.00
56172;DHT22;42052;41.634;-0.946;2023-05-29T03:22:54;25.10;49.10
56172;DHT22;42052;41.634;-0.946;2023-05-29T03:25:40;25.20;49.10
56172;DHT22;42052;41.634;-0.946;2023-05-29T03:28:26;25.10;49.10
56172;DHT22;42052;41.634;-0.946;2023-05-29T03:31:12;25.10;48.80
56172;DHT22;42052;41.634;-0.946;2023-05-29T03:33:59;25.10;49.00
56172;DHT22;42052;41.634;-0.946;2023-05-29T03:36:45;25.10;49.00
56172;DHT22;42052;41.634;-0.946;2023-05-29T03:39:32;25.10;49.00
56172;DHT22;42052;41.634;-0.946;2023-05-29T03:42:18;25.10;49.00
56172;DHT22;42052;41.634;-0.946;2023-05-29T03:45:04;25.10;49.00
56172;DHT22;42052;41.634;-0.946;2023-05-29T03:47:50;25.10;49.10
56172;DHT22;42052;41.634;-0.946;2023-05-29T03:50:36;25.10;49.10
56172;DHT22;42052;41.634;-0.946;2023-05-29T03:53:22;25.10;49.20
56172;DHT22;42052;41.634;-0.946;2023-05-29T03:56:09;25.10;49.10
56172;DHT22;42052;41.634;-0.946;2023-05-29T03:58:55;25.10;49.10
56172;DHT22;42052;41.634;-0.946;2023-05-29T04:01:41;25.10;49.00
56172;DHT22;42052;41.634;-0.946;2023-05-29T04:04:27;25.10;48.90
56172;DHT22;42052;41.634;-0.946;2023-05-29T04:07:13;25.10;49.00
56172;DHT22;42052;41.634;-0.946;2023-05-29T04:09:59;25.10;49.10
56172;DHT22;42052;41.634;-0.946;2023-05-29T04:12:45;25.10;49.10
56172;DHT22;42052;41.634;-0.946;2023-05-29T04:15:31;25.00;49.00
56172;DHT22;42052;41.634;-0.946;2023-05-29T04:18:20;25.00;49.10
56172;DHT22;42052;41.634;-0.946;2023-05-29T04:21:06;25.00;49.00
56172;DHT22;42052;41.634;-0.946;2023-05-29T04:23:52;25.00;49.00
56172;DHT22;42052;41.634;-0.946;2023-05-29T04:26:39;25.00;49.00
56172;DHT22;42052;41.634;-0.946;2023-05-29T04:29:28;25.00;49.10
56172;DHT22;42052;41.634;-0.946;2023-05-29T04:32:14;25.00;49.10
56172;DHT22;42052;41.634;-0.946;2023-05-29T04:35:00;25.00;49.10
56172;DHT22;42052;41.634;-0.946;2023-05-29T04:37:48;25.00;49.30
56172;DHT22;42052;41.634;-0.946;2023-05-29T04:40:34;25.10;49.10
56172;DHT22;42052;41.634;-0.946;2023-05-29T04:43:22;25.10;49.10
56172;DHT22;42052;41.634;-0.946;2023-05-29T04:46:08;25.00;49.00
56172;DHT22;42052;41.634;-0.946;2023-05-29T04:48:58;25.10;49.00
56172;DHT22;42052;41.634;-0.946;2023-05-29T04:51:44;25.00;48.90
56172;DHT22;42052;41.634;-0.946;2023-05-29T04:54:32;25.00;49.10
56172;DHT22;42052;41.634;-0.946;2023-05-29T04:57:19;25.00;49.10
56172;DHT22;42052;41.634;-0.946;2023-05-29T05:00:06;25.00;49.00
56172;DHT22;42052;41.634;-0.946;2023-05-29T05:02:59;25.10;49.10
56172;DHT22;42052;41.634;-0.946;2023-05-29T05:05:45;25.00;49.10
56172;DHT22;42052;41.634;-0.946;2023-05-29T05:08:31;25.10;49.10
56172;DHT22;42052;41.634;-0.946;2023-05-29T05:11:18;25.00;49.10
56172;DHT22;42052;41.634;-0.946;2023-05-29T05:14:05;25.00;49.00
56172;DHT22;42052;41.634;-0.946;2023-05-29T05:16:51;25.00;48.90
56172;DHT22;42052;41.634;-0.946;2023-05-29T05:19:37;25.00;48.80
56172;DHT22;42052;41.634;-0.946;2023-05-29T05:22:23;25.00;48.80
56172;DHT22;42052;41.634;-0.946;2023-05-29T05:25:09;25.10;49.60
56172;DHT22;42052;41.634;-0.946;2023-05-29T05:27:55;25.10;50.60
56172;DHT22;42052;41.634;-0.946;2023-05-29T05:30:41;25.10;51.60
56172;DHT22;42052;41.634;-0.946;2023-05-29T05:33:27;25.10;52.30
56172;DHT22;42052;41.634;-0.946;2023-05-29T05:36:14;25.10;52.70
56172;DHT22;42052;41.634;-0.946;2023-05-29T05:39:00;25.10;52.50
56172;DHT22;42052;41.634;-0.946;2023-05-29T05:41:46;25.10;52.90
56172;DHT22;42052;41.634;-0.946;2023-05-29T05:44:32;25.20;53.90
56172;DHT22;42052;41.634;-0.946;2023-05-29T05:47:18;25.10;54.50
56172;DHT22;42052;41.634;-0.946;2023-05-29T05:50:05;25.20;54.90
56172;DHT22;42052;41.634;-0.946;2023-05-29T05:52:51;25.20;55.50
56172;DHT22;42052;41.634;-0.946;2023-05-29T05:55:37;25.20;55.70
56172;DHT22;42052;41.634;-0.946;2023-05-29T05:58:23;25.20;55.50
56172;DHT22;42052;41.634;-0.946;2023-05-29T06:01:09;25.20;55.40
56172;DHT22;42052;41.634;-0.946;2023-05-29T06:03:56;25.20;55.30
56172;DHT22;42052;41.634;-0.946;2023-05-29T06:06:42;25.20;55.20
56172;DHT22;42052;41.634;-0.946;2023-05-29T06:09:28;25.20;55.30
56172;DHT22;42052;41.634;-0.946;2023-05-29T06:12:14;25.20;55.00
56172;DHT22;42052;41.634;-0.946;2023-05-29T06:15:01;25.20;55.00
56172;DHT22;42052;41.634;-0.946;2023-05-29T06:17:49;25.20;54.80
56172;DHT22;42052;41.634;-0.946;2023-05-29T06:20:37;25.10;54.80
56172;DHT22;42052;41.634;-0.946;2023-05-29T06:23:23;25.10;54.60
56172;DHT22;42052;41.634;-0.946;2023-05-29T06:26:09;25.20;54.30
56172;DHT22;42052;41.634;-0.946;2023-05-29T06:28:57;25.20;54.20
56172;DHT22;42052;41.634;-0.946;2023-05-29T06:31:43;25.10;54.30
56172;DHT22;42052;41.634;-0.946;2023-05-29T06:34:29;25.10;54.10
56172;DHT22;42052;41.634;-0.946;2023-05-29T06:37:15;25.10;54.00
56172;DHT22;42052;41.634;-0.946;2023-05-29T06:40:01;25.10;53.80
56172;DHT22;42052;41.634;-0.946;2023-05-29T06:42:47;25.10;53.90
56172;DHT22;42052;41.634;-0.946;2023-05-29T06:45:33;25.20;54.10
56172;DHT22;42052;41.634;-0.946;2023-05-29T06:48:20;25.10;53.50
56172;DHT22;42052;41.634;-0.946;2023-05-29T06:51:06;25.10;53.60
56172;DHT22;42052;41.634;-0.946;2023-05-29T06:53:54;25.10;53.30
56172;DHT22;42052;41.634;-0.946;2023-05-29T06:56:40;25.10;53.20
56172;DHT22;42052;41.634;-0.946;2023-05-29T06:59:27;25.10;53.50
56172;DHT22;42052;41.634;-0.946;2023-05-29T07:02:13;25.20;53.50
56172;DHT22;42052;41.634;-0.946;2023-05-29T07:04:59;25.10;54.10
56172;DHT22;42052;41.634;-0.946;2023-05-29T07:07:45;25.10;53.00
56172;DHT22;42052;41.634;-0.946;2023-05-29T07:10:31;25.10;53.20
56172;DHT22;42052;41.634;-0.946;2023-05-29T07:13:17;25.10;52.90
56172;DHT22;42052;41.634;-0.946;2023-05-29T07:16:04;25.10;52.60
56172;DHT22;42052;41.634;-0.946;2023-05-29T07:18:50;25.10;52.90
56172;DHT22;42052;41.634;-0.946;2023-05-29T07:21:36;25.10;52.50
56172;DHT22;42052;41.634;-0.946;2023-05-29T07:24:22;25.10;52.20
56172;DHT22;42052;41.634;-0.946;2023-05-29T07:27:08;25.10;52.30
56172;DHT22;42052;41.634;-0.946;2023-05-29T07:29:54;25.10;52.50
56172;DHT22;42052;41.634;-0.946;2023-05-29T07:32:40;25.10;52.60
56172;DHT22;42052;41.634;-0.946;2023-05-29T07:35:27;25.00;52.20
56172;DHT22;42052;41.634;-0.946;2023-05-29T07:38:13;25.10;52.20
56172;DHT22;42052;41.634;-0.946;2023-05-29T07:40:59;25.10;52.70
56172;DHT22;42052;41.634;-0.946;2023-05-29T07:43:45;25.00;52.40
56172;DHT22;42052;41.634;-0.946;2023-05-29T07:46:36;25.10;52.00
56172;DHT22;42052;41.634;-0.946;2023-05-29T07:49:22;25.10;52.50
56172;DHT22;42052;41.634;-0.946;2023-05-29T07:52:09;25.10;52.50
56172;DHT22;42052;41.634;-0.946;2023-05-29T07:54:55;25.00;52.30
56172;DHT22;42052;41.634;-0.946;2023-05-29T07:57:41;25.10;52.50
56172;DHT22;42052;41.634;-0.946;2023-05-29T08:00:28;25.10;52.40
56172;DHT22;42052;41.634;-0.946;2023-05-29T08:03:14;25.10;52.20
56172;DHT22;42052;41.634;-0.946;2023-05-29T08:06:01;25.00;52.40
56172;DHT22;42052;41.634;-0.946;2023-05-29T08:08:47;25.10;52.50
56172;DHT22;42052;41.634;-0.946;2023-05-29T08:11:33;25.00;52.30
56172;DHT22;42052;41.634;-0.946;2023-05-29T08:14:19;25.00;53.10
56172;DHT22;42052;41.634;-0.946;2023-05-29T08:17:06;25.00;52.30
56172;DHT22;42052;41.634;-0.946;2023-05-29T08:19:53;25.00;52.40
56172;DHT22;42052;41.634;-0.946;2023-05-29T08:22:39;25.00;52.40
56172;DHT22;42052;41.634;-0.946;2023-05-29T08:25:25;25.00;52.40
56172;DHT22;42052;41.634;-0.946;2023-05-29T08:28:11;25.00;52.70
56172;DHT22;42052;41.634;-0.946;2023-05-29T08:30:57;25.00;52.60
56172;DHT22;42052;41.634;-0.946;2023-05-29T08:33:43;25.00;52.70
56172;DHT22;42052;41.634;-0.946;2023-05-29T08:36:29;25.00;52.60
56172;DHT22;42052;41.634;-0.946;2023-05-29T08:39:17;25.00;52.50
56172;DHT22;42052;41.634;-0.946;2023-05-29T08:42:13;25.00;52.40
56172;DHT22;42052;41.634;-0.946;2023-05-29T08:45:03;25.10;52.30
56172;DHT22;42052;41.634;-0.946;2023-05-29T08:47:53;25.00;52.20
56172;DHT22;42052;41.634;-0.946;2023-05-29T08:50:45;25.00;51.90
56172;DHT22;42052;41.634;-0.946;2023-05-29T08:53:32;25.00;52.40
56172;DHT22;42052;41.634;-0.946;2023-05-29T08:56:18;25.00;52.00
56172;DHT22;42052;41.634;-0.946;2023-05-29T08:59:04;25.00;51.90
56172;DHT22;42052;41.634;-0.946;2023-05-29T09:01:51;25.00;51.90
56172;DHT22;42052;41.634;-0.946;2023-05-29T09:04:38;25.10;52.00
56172;DHT22;42052;41.634;-0.946;2023-05-29T09:07:26;25.10;51.80
56172;DHT22;42052;41.634;-0.946;2023-05-29T09:10:13;25.10;52.00
56172;DHT22;42052;41.634;-0.946;2023-05-29T09:12:59;25.10;52.00
56172;DHT22;42052;41.634;-0.946;2023-05-29T09:15:46;25.10;51.80
56172;DHT22;42052;41.634;-0.946;2023-05-29T09:18:32;25.10;51.80
56172;DHT22;42052;41.634;-0.946;2023-05-29T09:21:37;25.10;52.00
56172;DHT22;42052;41.634;-0.946;2023-05-29T09:24:24;25.10;52.00
56172;DHT22;42052;41.634;-0.946;2023-05-29T09:27:10;25.10;51.90
56172;DHT22;42052;41.634;-0.946;2023-05-29T09:29:59;25.10;51.90
56172;DHT22;42052;41.634;-0.946;2023-05-29T09:32:53;25.10;51.70
56172;DHT22;42052;41.634;-0.946;2023-05-29T09:35:44;25.10;51.70
56172;DHT22;42052;41.634;-0.946;2023-05-29T09:38:31;25.10;51.60
56172;DHT22;42052;41.634;-0.946;2023-05-29T09:41:23;25.10;51.60
56172;DHT22;42052;41.634;-0.946;2023-05-29T09:44:13;25.10;51.80
56172;DHT22;42052;41.634;-0.946;2023-05-29T09:47:00;25.10;51.70
56172;DHT22;42052;41.634;-0.946;2023-05-29T09:49:46;25.10;51.60
56172;DHT22;42052;41.634;-0.946;2023-05-29T09:52:32;25.10;51.70
56172;DHT22;42052;41.634;-0.946;2023-05-29T09:55:20;25.10;51.70
56172;DHT22;42052;41.634;-0.946;2023-05-29T09:58:07;25.10;51.80
56172;DHT22;42052;41.634;-0.946;2023-05-29T10:00:54;25.10;51.70
56172;DHT22;42052;41.634;-0.946;2023-05-29T10:03:42;25.10;51.80
56172;DHT22;42052;41.634;-0.946;2023-05-29T10:06:29;25.10;51.60
56172;DHT22;42052;41.634;-0.946;2023-05-29T10:09:18;25.10;51.60
56172;DHT22;42052;41.634;-0.946;2023-05-29T10:12:07;25.10;51.70
56172;DHT22;42052;41.634;-0.946;2023-05-29T10:14:57;25.10;51.50
56172;DHT22;42052;41.634;-0.946;2023-05-29T10:17:53;25.10;51.50
56172;DHT22;42052;41.634;-0.946;2023-05-29T10:20:44;25.10;51.50
56172;DHT22;42052;41.634;-0.946;2023-05-29T10:23:31;25.10;51.50
56172;DHT22;42052;41.634;-0.946;2023-05-29T10:26:24;25.10;51.30
56172;DHT22;42052;41.634;-0.946;2023-05-29T10:29:36;25.10;51.60
56172;DHT22;42052;41.634;-0.946;2023-05-29T10:32:36;25.10;51.50
56172;DHT22;42052;41.634;-0.946;2023-05-29T10:35:44;25.10;51.40
56172;DHT22;42052;41.634;-0.946;2023-05-29T10:38:32;25.10;51.40
56172;DHT22;42052;41.634;-0.946;2023-05-29T10:47:23;25.10;51.30
56172;DHT22;42052;41.634;-0.946;2023-05-29T10:50:09;25.20;51.50
56172;DHT22;42052;41.634;-0.946;2023-05-29T10:52:56;25.20;51.30
56172;DHT22;42052;41.634;-0.946;2023-05-29T10:55:42;25.10;51.40
56172;DHT22;42052;41.634;-0.946;2023-05-29T10:58:30;25.10;51.30
56172;DHT22;42052;41.634;-0.946;2023-05-29T11:01:16;25.10;51.20
56172;DHT22;42052;41.634;-0.946;2023-05-29T11:07:03;25.10;51.30
56172;DHT22;42052;41.634;-0.946;2023-05-29T11:09:52;25.20;51.30
56172;DHT22;42052;41.634;-0.946;2023-05-29T11:12:56;25.20;51.30
56172;DHT22;42052;41.634;-0.946;2023-05-29T11:15:43;25.20;51.20
56172;DHT22;42052;41.634;-0.946;2023-05-29T11:18:29;25.20;51.20
56172;DHT22;42052;41.634;-0.946;2023-05-29T11:21:38;25.20;51.10
56172;DHT22;42052;41.634;-0.946;2023-05-29T11:24:30;25.20;51.10
56172;DHT22;42052;41.634;-0.946;2023-05-29T11:27:17;25.20;51.00
56172;DHT22;42052;41.634;-0.946;2023-05-29T11:30:04;25.20;51.00
56172;DHT22;42052;41.634;-0.946;2023-05-29T11:32:52;25.20;51.10
56172;DHT22;42052;41.634;-0.946;2023-05-29T11:35:38;25.20;50.90
56172;DHT22;42052;41.634;-0.946;2023-05-29T11:38:28;25.20;50.90
56172;DHT22;42052;41.634;-0.946;2023-05-29T11:41:17;25.20;51.00
56172;DHT22;42052;41.634;-0.946;2023-05-29T11:44:04;25.20;51.00
56172;DHT22;42052;41.634;-0.946;2023-05-29T11:47:04;25.20;50.90
56172;DHT22;42052;41.634;-0.946;2023-05-29T11:49:51;25.20;50.90
56172;DHT22;42052;41.634;-0.946;2023-05-29T11:52:45;25.20;51.00
56172;DHT22;42052;41.634;-0.946;2023-05-29T11:55:32;25.20;50.90
56172;DHT22;42052;41.634;-0.946;2023-05-29T11:58:18;25.20;50.80
56172;DHT22;42052;41.634;-0.946;2023-05-29T12:01:07;25.20;50.70
56172;DHT22;42052;41.634;-0.946;2023-05-29T12:03:56;25.20;50.80
56172;DHT22;42052;41.634;-0.946;2023-05-29T12:06:42;25.20;50.80
56172;DHT22;42052;41.634;-0.946;2023-05-29T12:09:29;25.20;50.80
56172;DHT22;42052;41.634;-0.946;2023-05-29T12:12:15;25.20;50.80
56172;DHT22;42052;41.634;-0.946;2023-05-29T12:15:02;25.20;50.80
56172;DHT22;42052;41.634;-0.946;2023-05-29T12:17:52;25.20;50.70
56172;DHT22;42052;41.634;-0.946;2023-05-29T12:20:38;25.20;50.70
56172;DHT22;42052;41.634;-0.946;2023-05-29T12:23:24;25.20;50.60
56172;DHT22;42052;41.634;-0.946;2023-05-29T12:26:10;25.20;50.60
56172;DHT22;42052;41.634;-0.946;2023-05-29T12:28:58;25.20;50.60
56172;DHT22;42052;41.634;-0.946;2023-05-29T12:31:47;25.20;50.60
56172;DHT22;42052;41.634;-0.946;2023-05-29T12:34:42;25.30;50.70
56172;DHT22;42052;41.634;-0.946;2023-05-29T12:37:30;25.20;50.60
56172;DHT22;42052;41.634;-0.946;2023-05-29T12:43:07;25.30;50.50
56172;DHT22;42052;41.634;-0.946;2023-05-29T12:45:56;25.30;50.50
56172;DHT22;42052;41.634;-0.946;2023-05-29T12:48:43;25.30;50.50
56172;DHT22;42052;41.634;-0.946;2023-05-29T12:51:30;25.30;50.50
56172;DHT22;42052;41.634;-0.946;2023-05-29T12:54:17;25.30;50.40
56172;DHT22;42052;41.634;-0.946;2023-05-29T12:57:03;25.30;50.50
56172;DHT22;42052;41.634;-0.946;2023-05-29T12:59:50;25.30;50.40
56172;DHT22;42052;41.634;-0.946;2023-05-29T13:02:36;25.30;50.50
56172;DHT22;42052;41.634;-0.946;2023-05-29T13:05:22;25.30;50.50
56172;DHT22;42052;41.634;-0.946;2023-05-29T13:08:08;25.30;50.30
56172;DHT22;42052;41.634;-0.946;2023-05-29T13:10:55;25.30;50.30
56172;DHT22;42052;41.634;-0.946;2023-05-29T13:13:41;25.30;50.30
56172;DHT22;42052;41.634;-0.946;2023-05-29T13:16:27;25.30;50.30
56172;DHT22;42052;41.634;-0.946;2023-05-29T13:19:13;25.30;50.40
56172;DHT22;42052;41.634;-0.946;2023-05-29T13:21:59;25.30;50.30
56172;DHT22;42052;41.634;-0.946;2023-05-29T13:24:45;25.30;51.10
56172;DHT22;42052;41.634;-0.946;2023-05-29T13:27:33;25.30;50.20
56172;DHT22;42052;41.634;-0.946;2023-05-29T13:30:20;25.30;50.30
56172;DHT22;42052;41.634;-0.946;2023-05-29T13:33:07;25.30;50.40
56172;DHT22;42052;41.634;-0.946;2023-05-29T13:35:53;25.30;50.30
56172;DHT22;42052;41.634;-0.946;2023-05-29T13:38:39;25.30;50.20
56172;DHT22;42052;41.634;-0.946;2023-05-29T13:41:26;25.30;50.20
56172;DHT22;42052;41.634;-0.946;2023-05-29T13:44:12;25.30;50.20
56172;DHT22;42052;41.634;-0.946;2023-05-29T13:46:58;25.30;50.20
56172;DHT22;42052;41.634;-0.946;2023-05-29T13:49:44;25.30;50.20
56172;DHT22;42052;41.634;-0.946;2023-05-29T13:52:30;25.30;50.30
56172;DHT22;42052;41.634;-0.946;2023-05-29T13:55:16;25.30;50.20
56172;DHT22;42052;41.634;-0.946;2023-05-29T13:58:02;25.30;50.20
56172;DHT22;42052;41.634;-0.946;2023-05-29T14:00:48;25.30;50.30
56172;DHT22;42052;41.634;-0.946;2023-05-29T14:03:35;25.30;51.00
56172;DHT22;42052;41.634;-0.946;2023-05-29T14:06:21;25.30;50.20
56172;DHT22;42052;41.634;-0.946;2023-05-29T14:09:07;25.30;50.10
56172;DHT22;42052;41.634;-0.946;2023-05-29T14:12:00;25.30;50.20
56172;DHT22;42052;41.634;-0.946;2023-05-29T14:14:48;25.30;50.20
56172;DHT22;42052;41.634;-0.946;2023-05-29T14:17:34;25.30;50.10
56172;DHT22;42052;41.634;-0.946;2023-05-29T14:20:20;25.30;50.10
56172;DHT22;42052;41.634;-0.946;2023-05-29T14:23:06;25.30;50.10
56172;DHT22;42052;41.634;-0.946;2023-05-29T14:25:55;25.30;50.10
56172;DHT22;42052;41.634;-0.946;2023-05-29T14:28:41;25.30;50.10
56172;DHT22;42052;41.634;-0.946;2023-05-29T14:31:27;25.30;50.20
56172;DHT22;42052;41.634;-0.946;2023-05-29T14:34:14;25.30;50.10
56172;DHT22;42052;41.634;-0.946;2023-05-29T14:37:00;25.30;50.20
56172;DHT22;42052;41.634;-0.946;2023-05-29T14:39:46;25.30;50.10
56172;DHT22;42052;41.634;-0.946;2023-05-29T14:42:32;25.30;50.00
56172;DHT22;42052;41.634;-0.946;2023-05-29T14:45:19;25.30;50.10
56172;DHT22;42052;41.634;-0.946;2023-05-29T14:48:05;25.30;50.00
56172;DHT22;42052;41.634;-0.946;2023-05-29T14:50:51;25.30;49.90
56172;DHT22;42052;41.634;-0.946;2023-05-29T14:53:37;25.30;49.90
56172;DHT22;42052;41.634;-0.946;2023-05-29T14:56:24;25.30;50.00
56172;DHT22;42052;41.634;-0.946;2023-05-29T14:59:10;25.30;50.00
56172;DHT22;42052;41.634;-0.946;2023-05-29T15:01:57;25.30;49.90
56172;DHT22;42052;41.634;-0.946;2023-05-29T15:04:44;25.30;49.90
56172;DHT22;42052;41.634;-0.946;2023-05-29T15:07:31;25.30;49.70
56172;DHT22;42052;41.634;-0.946;2023-05-29T15:10:20;25.30;49.80
56172;DHT22;42052;41.634;-0.946;2023-05-29T15:13:06;25.40;49.80
56172;DHT22;42052;41.634;-0.946;2023-05-29T15:15:53;25.30;49.80
56172;DHT22;42052;41.634;-0.946;2023-05-29T15:18:39;25.30;49.60
56172;DHT22;42052;41.634;-0.946;2023-05-29T15:21:25;25.30;49.70
56172;DHT22;42052;41.634;-0.946;2023-05-29T15:24:11;25.30;49.60
56172;DHT22;42052;41.634;-0.946;2023-05-29T15:26:57;25.40;49.70
56172;DHT22;42052;41.634;-0.946;2023-05-29T15:29:43;25.30;49.60
56172;DHT22;42052;41.634;-0.946;2023-05-29T15:32:29;25.30;49.60
56172;DHT22;42052;41.634;-0.946;2023-05-29T15:35:16;25.30;49.60
56172;DHT22;42052;41.634;-0.946;2023-05-29T15:38:02;25.30;49.60
56172;DHT22;42052;41.634;-0.946;2023-05-29T15:40:48;25.40;49.70
56172;DHT22;42052;41.634;-0.946;2023-05-29T15:43:34;25.40;49.70
56172;DHT22;42052;41.634;-0.946;2023-05-29T15:46:20;25.30;49.70
56172;DHT22;42052;41.634;-0.946;2023-05-29T15:49:06;25.30;49.70
56172;DHT22;42052;41.634;-0.946;2023-05-29T15:51:52;25.30;49.60
56172;DHT22;42052;41.634;-0.946;2023-05-29T15:54:38;25.40;49.70
56172;DHT22;42052;41.634;-0.946;2023-05-29T15:57:24;25.30;49.70
56172;DHT22;42052;41.634;-0.946;2023-05-29T16:00:11;25.30;49.70
56172;DHT22;42052;41.634;-0.946;2023-05-29T16:02:57;25.30;49.60
56172;DHT22;42052;41.634;-0.946;2023-05-29T16:05:43;25.30;49.60
56172;DHT22;42052;41.634;-0.946;2023-05-29T16:08:30;25.40;49.50
56172;DHT22;42052;41.634;-0.946;2023-05-29T16:11:16;25.30;49.40
56172;DHT22;42052;41.634;-0.946;2023-05-29T16:14:02;25.40;49.50
56172;DHT22;42052;41.634;-0.946;2023-05-29T16:16:48;25.40;49.50
56172;DHT22;42052;41.634;-0.946;2023-05-29T16:19:34;25.40;49.50
56172;DHT22;42052;41.634;-0.946;2023-05-29T16:22:22;25.40;49.70
56172;DHT22;42052;41.634;-0.946;2023-05-29T16:25:09;25.40;49.50
56172;DHT22;42052;41.634;-0.946;2023-05-29T16:27:55;25.40;49.60
56172;DHT22;42052;41.634;-0.946;2023-05-29T16:30:41;25.40;49.70
56172;DHT22;42052;41.634;-0.946;2023-05-29T16:33:27;25.40;49.60
56172;DHT22;42052;41.634;-0.946;2023-05-29T16:36:14;25.40;49.60
56172;DHT22;42052;41.634;-0.946;2023-05-29T16:39:01;25.40;49.50
56172;DHT22;42052;41.634;-0.946;2023-05-29T16:41:48;25.40;49.70
56172;DHT22;42052;41.634;-0.946;2023-05-29T16:44:34;25.40;49.50
56172;DHT22;42052;41.634;-0.946;2023-05-29T16:47:20;25.40;49.50
56172;DHT22;42052;41.634;-0.946;2023-05-29T16:50:07;25.50;49.50
56172;DHT22;42052;41.634;-0.946;2023-05-29T16:52:53;25.50;49.50
56172;DHT22;42052;41.634;-0.946;2023-05-29T16:55:40;25.40;49.40
56172;DHT22;42052;41.634;-0.946;2023-05-29T16:58:26;25.50;49.50
56172;DHT22;42052;41.634;-0.946;2023-05-29T17:01:12;25.40;49.30
56172;DHT22;42052;41.634;-0.946;2023-05-29T17:03:58;25.40;49.50
56172;DHT22;42052;41.634;-0.946;2023-05-29T17:06:45;25.50;49.50
56172;DHT22;42052;41.634;-0.946;2023-05-29T17:09:31;25.40;49.30
56172;DHT22;42052;41.634;-0.946;2023-05-29T17:12:17;25.40;49.40
56172;DHT22;42052;41.634;-0.946;2023-05-29T17:15:06;25.40;49.40
56172;DHT22;42052;41.634;-0.946;2023-05-29T17:17:52;25.40;49.30
56172;DHT22;42052;41.634;-0.946;2023-05-29T17:20:40;25.40;49.30
56172;DHT22;42052;41.634;-0.946;2023-05-29T17:23:26;25.40;49.50
56172;DHT22;42052;41.634;-0.946;2023-05-29T17:26:12;25.50;49.50
56172;DHT22;42052;41.634;-0.946;2023-05-29T17:28:58;25.40;49.40
56172;DHT22;42052;41.634;-0.946;2023-05-29T17:31:45;25.50;49.50
56172;DHT22;42052;41.634;-0.946;2023-05-29T17:34:31;25.50;49.50
56172;DHT22;42052;41.634;-0.946;2023-05-29T17:37:18;25.50;49.50